• Join FlightAware (Why Join?)
  • Login
  • US Flag 
01:24AM EDT


 

Airport Tracker/Info


-or-


 

Live Flight TrackerFlight Track Log ✈ USC110 ✈ 16-Jun-2013 ✈ KSUS - KFTY

Flight Track Log - Related Links

Times and Time Zones

All times are in EDT time to prevent confusion due to time zone crossing. See the USC110 flight status page for this flight to view local times or setup timezone preferences in your user account.

Time Position Orientation Groundspeed Altitude Reporting Facility
EDT Latitude Longitude Course Direction KTS MPH feet Rate Location/Type
03:00PM 38.6333 -90.6833 142° Southeast 108 124 1,800  Level Gateway (St. Louis) TRACON
03:01PM 38.6083 -90.6581 142° Southeast 112 129 2,400 660 Climbing Kansas City Center
03:02PM 38.5814 -90.6231 135° Southeast 116 133 3,200 720 Climbing Kansas City Center
03:03PM 38.5561 -90.5994 144° Southeast 115 132 3,900 600 Climbing Kansas City Center
03:04PM 38.5308 -90.5692 137° Southeast 119 137 4,500 480 Climbing Kansas City Center
03:05PM 38.4610 -90.3750 142° Southeast  Level Estimated
03:05PM 38.5039 -90.5383 138° Southeast 127 146 5,000  Level Kansas City Center
03:06PM 38.4719 -90.5022 138° Southeast 143 165 5,000  Level Kansas City Center
03:07PM 38.4319 -90.4522 136° Southeast 160 184 5,000  Level Kansas City Center
03:08PM 38.4014 -90.4122 134° Southeast 161 185 5,000  Level Kansas City Center
03:09PM 38.3689 -90.3750 138° Southeast 159 183 5,000  Level Kansas City Center
03:10PM 38.3350 -90.3358 138° Southeast 161 185 5,000  Level Kansas City Center
03:11PM 38.3014 -90.2969 138° Southeast 163 188 5,000  Level Kansas City Center
03:12PM 38.2675 -90.2572 137° Southeast 165 190 5,000  Level Kansas City Center
03:13PM 38.2278 -90.2097 137° Southeast 164 189 5,000  Level Kansas City Center
03:14PM 38.1939 -90.1703 138° Southeast 165 190 5,000  Level Kansas City Center
03:15PM 38.1603 -90.1317 138° Southeast 164 189 5,000  Level Kansas City Center
03:16PM 38.1261 -90.0903 136° Southeast 167 192 5,000  Level Kansas City Center
03:17PM 38.0944 -90.0511 136° Southeast 162 186 5,000  Level Kansas City Center
03:18PM 38.0553 -90.0044 137° Southeast 164 189 5,000  Level Kansas City Center
03:20PM 38.0181 -89.9597 137° Southeast 169 194 5,000  Level Kansas City Center
03:21PM 37.9858 -89.9192 135° Southeast 164 189 5,100  Climbing Kansas City Center
03:22PM 37.9514 -89.8811 139° Southeast 164 189 5,000  Descending Kansas City Center
03:23PM 37.9153 -89.8394 138° Southeast 163 188 5,100  Climbing Kansas City Center
03:24PM 37.8833 -89.7994 135° Southeast 162 186 5,100 -60 Level Kansas City Center
03:25PM 37.8481 -89.7589 138° Southeast 160 184 5,000 -60 Descending Kansas City Center
03:26PM 37.8142 -89.7192 137° Southeast 163 188 5,000  Level Kansas City Center
03:27PM 37.7817 -89.6806 137° Southeast 163 188 5,100  Climbing Kansas City Center
03:28PM 37.7483 -89.6439 139° Southeast 161 185 5,100  Level Kansas City Center
03:29PM 37.7128 -89.6111 144° Southeast 160 184 5,100  Level Kansas City Center
03:30PM 37.6786 -89.5733 139° Southeast 161 185 5,100  Level Kansas City Center
03:31PM 37.6464 -89.5328 135° Southeast 162 186 5,100  Level Kansas City Center
03:32PM 37.6064 -89.4822 135° Southeast 167 192 5,100 -60 Level Kansas City Center
03:33PM 37.5714 -89.4406 137° Southeast 168 193 5,000  Descending Kansas City Center
03:34PM 37.5356 -89.3997 138° Southeast 171 197 5,100  Climbing Kansas City Center
03:35PM 37.5017 -89.3569 135° Southeast 172 198 5,000  Descending Kansas City Center
03:36PM 37.4664 -89.3197 140° Southeast 168 193 5,100  Climbing Kansas City Center
03:37PM 37.4328 -89.2783 136° Southeast 169 194 5,100  Level Kansas City Center
03:38PM 37.3911 -89.2300 137° Southeast 169 194 5,100  Level Kansas City Center
03:39PM 37.3553 -89.1928 140° Southeast 168 193 5,100  Level Kansas City Center
03:40PM 37.3200 -89.1539 139° Southeast 167 192 5,100  Level Kansas City Center
03:41PM 37.2925 -89.1211 137° Southeast 170 196 5,100  Level Memphis Center
03:42PM 37.2544 -89.0800 139° Southeast 170 196 5,100  Level Memphis Center
03:43PM 37.2186 -89.0389 138° Southeast 170 196 5,100  Level Memphis Center
03:44PM 37.1869 -89.0003 136° Southeast 170 196 5,100  Level Memphis Center
03:45PM 37.1489 -88.9594 139° Southeast 170 196 5,100 -60 Level Memphis Center
03:46PM 37.1153 -88.9211 138° Southeast 170 196 5,000  Descending Memphis Center
03:47PM 37.0794 -88.8825 139° Southeast 170 196 5,100  Climbing Memphis Center
03:48PM 37.0433 -88.8392 136° Southeast 170 196 5,100  Level Memphis Center
03:49PM 37.0097 -88.8008 138° Southeast 170 196 5,100  Level Memphis Center
03:50PM 36.9758 -88.7625 138° Southeast 170 196 5,100  Level Memphis Center
03:51PM 36.9397 -88.7192 136° Southeast 170 196 5,100  Level Memphis Center
03:52PM 36.9058 -88.6833 140° Southeast 175 201 5,100  Level Memphis Center
03:53PM 36.8700 -88.6428 138° Southeast 170 196 5,100  Level Memphis Center
03:54PM 36.8361 -88.6019 136° Southeast 170 196 5,100 -60 Level Memphis Center
03:55PM 36.8042 -88.5664 138° Southeast 170 196 5,000 -60 Descending Memphis Center
03:56PM 36.7706 -88.5308 140° Southeast 165 190 5,000  Level Memphis Center
03:57PM 36.7364 -88.4903 136° Southeast 160 184 5,100  Climbing Memphis Center
03:58PM 36.7025 -88.4547 140° Southeast 160 184 5,100  Level Memphis Center
03:59PM 36.6686 -88.4142 136° Southeast 160 184 5,100 -60 Level Memphis Center
04:00PM 36.6347 -88.3764 138° Southeast 160 184 5,000  Descending Memphis Center
04:01PM 36.5986 -88.3408 142° Southeast 160 184 5,100  Climbing Memphis Center
04:02PM 36.5647 -88.3031 138° Southeast 160 184 5,100  Level Memphis Center
04:03PM 36.5286 -88.2628 138° Southeast 160 184 5,100  Level Memphis Center
04:04PM 36.4967 -88.2247 136° Southeast 160 184 5,100  Level Memphis Center
04:05PM 36.4647 -88.1817 133° Southeast 160 184 5,100  Level Memphis Center
04:06PM 36.4367 -88.1336 126° Southeast 160 184 5,100  Level Memphis Center
04:07PM 36.4003 -88.0856 133° Southeast 165 190 5,100  Level Memphis Center
04:08PM 36.3725 -88.0400 127° Southeast 170 196 5,100  Level Memphis Center
04:09PM 36.3444 -87.9969 129° Southeast 170 196 5,100  Level Memphis Center
04:10PM 36.3144 -87.9514 129° Southeast 164 189 5,100  Level Memphis Center
04:11PM 36.2864 -87.9058 127° Southeast 164 189 5,100 -60 Level Memphis Center
04:12PM 36.2544 -87.8631 133° Southeast 164 189 5,000  Descending Memphis Center
04:13PM 36.2242 -87.8178 130° Southeast 164 189 5,100  Climbing Memphis Center
04:14PM 36.2006 -87.7772 126° Southeast 164 189 5,000 -60 Descending Memphis Center
04:15PM 36.1703 -87.7319 130° Southeast 164 189 5,000  Level Memphis Center
04:16PM 36.1422 -87.6892 129° Southeast 164 189 5,000  Level Memphis Center
04:17PM 36.1122 -87.6414 128° Southeast 164 189 5,100  Climbing Memphis Center
04:18PM 36.0842 -87.5986 129° Southeast 164 189 5,100  Level Memphis Center
04:19PM 36.0519 -87.5561 133° Southeast 159 183 5,100  Level Memphis Center
04:20PM 36.0239 -87.5133 129° Southeast 159 183 5,100  Level Memphis Center
04:21PM 35.9936 -87.4683 130° Southeast 159 183 5,100  Level Memphis Center
04:22PM 35.9589 -87.4181 130° Southeast 159 183 5,100  Level Memphis Center
04:23PM 35.9308 -87.3731 128° Southeast 164 189 5,100  Level Memphis Center
04:24PM 35.9028 -87.3331 131° Southeast 159 183 5,100  Level Memphis Center
04:25PM 35.8725 -87.2856 128° Southeast 159 183 5,100  Level Memphis Center
04:26PM 35.8442 -87.2431 129° Southeast 159 183 5,100 -60 Level Memphis Center
04:27PM 35.8139 -87.1981 130° Southeast 159 183 5,000  Descending Memphis Center
04:28PM 35.7856 -87.1556 129° Southeast 159 183 5,100  Climbing Memphis Center
04:29PM 35.7553 -87.1133 131° Southeast 164 189 5,100  Level Memphis Center
04:30PM 35.7272 -87.0683 128° Southeast 164 189 5,100  Level Memphis Center
04:31PM 35.6967 -87.0236 130° Southeast 164 189 5,100  Level Memphis Center
04:32PM 35.6664 -86.9814 131° Southeast 164 189 5,100  Level Memphis Center
04:33PM 35.6425 -86.9442 128° Southeast 159 183 5,100 -60 Level Memphis Center
04:34PM 35.6119 -86.9019 132° Southeast 159 183 5,000  Descending Memphis Center
04:35PM 35.5836 -86.8597 130° Southeast 159 183 5,100  Climbing Memphis Center
04:36PM 35.5553 -86.8150 128° Southeast 159 183 5,100  Level Memphis Center
04:37PM 35.5269 -86.7703 128° Southeast 165 190 5,100 -60 Level Memphis Center
04:38PM 35.4964 -86.7258 130° Southeast 165 190 5,000  Descending Memphis Center
04:39PM 35.4661 -86.6889 135° Southeast 160 184 5,100  Climbing Memphis Center
04:40PM 35.4356 -86.6392 127° Southeast 160 184 5,100  Level Memphis Center
04:41PM 35.4050 -86.5972 132° Southeast 160 184 5,100  Level Memphis Center
04:42PM 35.3767 -86.5553 130° Southeast 160 184 5,100 -60 Level Memphis Center
04:43PM 35.3461 -86.5108 130° Southeast 160 184 5,000  Descending Memphis Center
04:44PM 35.3178 -86.4689 130° Southeast 160 184 5,100  Climbing Memphis Center
04:45PM 35.2892 -86.4244 128° Southeast 170 196 5,100  Level Memphis Center
04:46PM 35.2606 -86.3800 128° Southeast 164 189 5,100  Level Memphis Center
04:47PM 35.2300 -86.3356 130° Southeast 164 189 5,100  Level Memphis Center
04:48PM 35.1994 -86.2939 132° Southeast 164 189 5,100  Level Memphis Center
04:49PM 35.1689 -86.2497 130° Southeast 164 189 5,100  Level Memphis Center
04:50PM 35.1381 -86.2031 129° Southeast 164 189 5,100  Level Memphis Center
04:51PM 35.1114 -86.1586 126° Southeast 164 189 5,100  Level Memphis Center
04:52PM 35.0789 -86.1172 134° Southeast 164 189 5,100 -60 Level Memphis Center
04:53PM 35.0522 -86.0728 126° Southeast 164 189 5,000  Descending Memphis Center
04:54PM 35.0297 -86.0258 120° Southeast 159 183 5,100  Climbing Memphis Center
04:55PM 35.0097 -85.9914 125° Southeast 159 183 5,100  Level Memphis Center
04:56PM 34.9828 -85.9344 120° Southeast 159 183 5,100  Level Memphis Center
04:58PM 34.9267 -85.8945 126° Southeast  Level FlightAware Approximate
05:03PM 34.7875 -85.6550 130° Southeast 173 199 5,100  Level Atlanta Center
05:04PM 34.7567 -85.6114 131° Southeast 168 193 5,000  Descending Atlanta Center
05:05PM 34.7209 -85.6025 130° Southeast  Level FlightAware Approximate
05:05PM 34.7281 -85.5703 130° Southeast 168 193 5,100  Level Atlanta Center
05:06PM 34.6917 -85.5605 130° Southeast  Level FlightAware Approximate
05:06PM 34.6972 -85.5294 133° Southeast 168 193 5,100  Level Atlanta Center
05:07PM 34.6626 -85.5186 130° Southeast  Level FlightAware Approximate
05:07PM 34.6686 -85.4936 134° Southeast 168 193 5,100  Level Atlanta Center
05:08PM 34.6397 -85.4525 130° Southeast 168 193 5,100 -60 Level Atlanta Center
05:09PM 34.6069 -85.4117 134° Southeast 168 193 5,000 -60 Descending Atlanta Center
05:10PM 34.5803 -85.3708 128° Southeast 168 193 5,000  Level Atlanta Center
05:11PM 34.5533 -85.3325 130° Southeast 157 181 5,000  Level Atlanta Center
05:12PM 34.5267 -85.2994 134° Southeast 146 168 5,000  Level Atlanta Center
05:13PM 34.4997 -85.2664 135° Southeast 141 162 5,000  Level Atlanta Center
05:14PM 34.4731 -85.2331 134° Southeast 141 162 5,000  Level Atlanta Center
05:15PM 34.4483 -85.1975 130° Southeast 141 162 5,000  Level Atlanta Center
05:16PM 34.4217 -85.1619 132° Southeast 141 162 5,000  Level Atlanta Center
05:17PM 34.3947 -85.1264 133° Southeast 148 170 5,000  Level Atlanta Center
05:18PM 34.3639 -85.0856 132° Southeast 154 177 5,000  Level Atlanta Center
05:19PM 34.3328 -85.0450 133° Southeast 159 183 5,000  Level Atlanta Center
05:20PM 34.3039 -85.0044 131° Southeast 159 183 5,000  Level Atlanta Center
05:22PM 34.2333 -84.9167 134° Southeast 162 186 5,000  Level Atlanta TRACON
05:23PM 34.2000 -84.8833 140° Southeast 164 189 5,000  Level Atlanta TRACON
05:24PM 34.1756 -84.8447 127° Southeast 164 189 5,000 -600 Level Atlanta Center
05:25PM 34.1319 -84.8167 152° Southeast 169 194 3,900 -600 Descending Atlanta Center
05:26PM 34.0947 -84.7864 146° Southeast 169 194 3,900  Level Atlanta Center
05:27PM 34.0572 -84.7583 148° Southeast 163 188 3,900  Level Atlanta Center
05:28PM 34.0197 -84.7331 151° Southeast 163 188 3,900 -120 Level Atlanta Center
05:30PM 33.9500 -84.6667 142° Southeast 162 186 3,700 -360 Descending Atlanta TRACON
05:31PM 33.9000 -84.6333 151° Southeast 181 208 2,900 -420 Descending Atlanta TRACON
05:32PM 33.8667 -84.6167 157° South 159 183 2,900  Level Atlanta TRACON
05:33PM 33.8333 -84.5833 140° Southeast 156 180 2,900 -540 Level Atlanta TRACON
05:34PM 33.8000 -84.5333 129° Southeast 170 196 1,900 -720 Descending Atlanta TRACON
05:35PM 33.7833 -84.5000 121° Southeast 152 175 1,500 -420 Descending Atlanta TRACON
05:37PM 33.7791 -84.5214 148° Southeast  Level Estimated
05:44PM 33.7791 -84.5214 320° Northwest  Level Estimated